Time;durP1;ratioP1;P1;durP2;ratioP2;P2;SDS_P1;SDS_P2;PMS_P1;PMS_P2;Temp;Humidity;BMP_temperature;BMP_pressure;BME280_temperature;BME280_humidity;BME280_pressure;Samples;Min_cycle;Max_cycle;Signal;HPM_P1;HPM_P2
2021/11/11 00:02:01;;;;;;;;;;;;;;;4.17;100.00;102416.84;5052567;28;19979;-48
2021/11/11 00:04:28;;;;;;;;;;;;;;;4.21;100.00;102418.53;5052382;28;19931;-47
2021/11/11 00:06:59;;;;;;;;;;;;;;;4.18;100.00;102404.66;5052661;28;20023;-48
2021/11/11 00:09:27;;;;;;;;;;;;;;;4.18;99.95;102402.91;5052733;28;20406;-47
2021/11/11 00:11:57;;;;;;;;;;;;;;;4.11;100.00;102400.44;5052551;28;19925;-48
2021/11/11 00:14:24;;;;;;;;;;;;;;;4.06;100.00;102382.25;5052343;28;19924;-47
2021/11/11 00:16:51;;;;;;;;;;;;;;;4.02;100.00;102388.38;5052790;28;19931;-47
2021/11/11 00:19:17;;;;;;;;;;;;;;;4.07;100.00;102383.97;5051595;28;20337;-48
2021/11/11 00:21:44;;;;;;;;;;;;;;;4.01;100.00;102384.91;5052699;28;19967;-49
2021/11/11 00:24:11;;;;;;;;;;;;;;;3.97;100.00;102378.03;5052978;28;19925;-48
2021/11/11 00:26:38;;;;;;;;;;;;;;;3.91;99.92;102372.03;5056775;28;19983;-46
2021/11/11 00:29:05;;;;;;;;;;;;;;;3.79;100.00;102366.13;5055829;28;19925;-47
2021/11/11 00:31:32;;;;;;;;;;;;;;;3.89;100.00;102370.31;5055399;28;19935;-47
2021/11/11 00:33:59;;;;;;;;;;;;;;;3.83;100.00;102370.41;5056719;28;19925;-45
2021/11/11 00:36:25;;;;;;;;;;;;;;;3.76;100.00;102362.69;5056633;28;19925;-47
2021/11/11 00:38:52;;;;;;;;;;;;;;;3.75;100.00;102359.22;5056564;28;19928;-48
2021/11/11 00:41:19;;;;;;;;;;;;;;;3.71;100.00;102348.00;5056736;28;20354;-48
2021/11/11 00:43:46;;;;;;;;;;;;;;;3.73;100.00;102353.16;5055245;28;19924;-46
2021/11/11 00:46:13;;;;;;;;;;;;;;;3.78;100.00;102355.72;5056344;28;20598;-48
2021/11/11 00:48:40;;;;;;;;;;;;;;;3.73;100.00;102359.22;5056494;28;20015;-47
2021/11/11 00:51:07;;;;;;;;;;;;;;;3.66;100.00;102365.38;5055174;28;20414;-48
2021/11/11 00:53:34;;;;;;;;;;;;;;;3.64;100.00;102376.69;5055162;28;19929;-47
2021/11/11 00:56:01;;;;;;;;;;;;;;;3.64;100.00;102376.69;5056354;28;19925;-47
2021/11/11 00:58:28;;;;;;;;;;;;;;;3.59;100.00;102373.31;5055181;28;20027;-50
2021/11/11 01:00:55;;;;;;;;;;;;;;;3.53;100.00;102382.91;5055069;28;20012;-48
2021/11/11 01:03:30;;;;;;;;;;;;;;;3.52;100.00;102378.56;5055154;28;19929;-48
2021/11/11 01:05:57;;;;;;;;;;;;;;;3.55;100.00;102388.94;5056190;28;19947;-48
2021/11/11 01:08:26;;;;;;;;;;;;;;;3.43;100.00;102383.88;5056501;28;20015;-48
2021/11/11 01:10:53;;;;;;;;;;;;;;;3.55;100.00;102380.28;5054949;28;19932;-48
2021/11/11 01:13:19;;;;;;;;;;;;;;;3.51;100.00;102391.59;5056013;28;19932;-45
2021/11/11 01:15:46;;;;;;;;;;;;;;;3.48;100.00;102389.03;5054361;28;20404;-48
2021/11/11 01:18:13;;;;;;;;;;;;;;;3.43;100.00;102380.41;5050686;28;20031;-46
2021/11/11 01:20:40;;;;;;;;;;;;;;;3.36;100.00;102380.47;5055474;28;19925;-49
2021/11/11 01:23:07;;;;;;;;;;;;;;;3.26;100.00;102381.44;5055816;28;20382;-45
2021/11/11 01:25:35;;;;;;;;;;;;;;;3.31;100.00;102382.28;5055539;28;19968;-47
2021/11/11 01:28:02;;;;;;;;;;;;;;;3.26;100.00;102378.84;5054265;28;19924;-46
2021/11/11 01:30:28;;;;;;;;;;;;;;;3.29;100.00;102380.56;5054424;28;20346;-49
2021/11/11 01:32:55;;;;;;;;;;;;;;;3.28;100.00;102382.28;5054539;28;19955;-46
2021/11/11 01:35:22;;;;;;;;;;;;;;;3.29;100.00;102385.75;5054824;28;19929;-51
2021/11/11 01:37:49;;;;;;;;;;;;;;;3.29;100.00;102385.75;5051218;28;20307;-47
2021/11/11 01:40:16;;;;;;;;;;;;;;;3.23;100.00;102384.06;5052921;28;19925;-50
2021/11/11 01:42:54;;;;;;;;;;;;;;;3.25;100.00;102378.88;5054982;28;20460;-50
2021/11/11 01:45:27;;;;;;;;;;;;;;;3.16;100.00;102374.59;5055265;28;19925;-48
2021/11/11 01:47:54;;;;;;;;;;;;;;;3.22;100.00;102372.81;5054376;28;19971;-48
2021/11/11 01:50:21;;;;;;;;;;;;;;;3.14;100.00;102368.56;5053947;28;20391;-48
2021/11/11 01:52:48;;;;;;;;;;;;;;;3.12;100.00;102368.59;5055331;28;20474;-48
2021/11/11 01:55:15;;;;;;;;;;;;;;;3.15;100.00;102368.56;5053910;28;19960;-46
2021/11/11 01:57:42;;;;;;;;;;;;;;;3.20;100.00;102369.38;5055351;28;19931;-49
2021/11/11 02:00:17;;;;;;;;;;;;;;;3.28;100.00;102371.03;5055077;28;19924;-48
2021/11/11 02:02:43;;;;;;;;;;;;;;;3.22;100.00;102364.16;5050441;28;19925;-49
2021/11/11 02:05:10;;;;;;;;;;;;;;;3.21;100.00;102360.66;5051121;28;20015;-47
2021/11/11 02:07:37;;;;;;;;;;;;;;;3.19;100.00;102362.44;5053770;28;20380;-47
2021/11/11 02:10:04;;;;;;;;;;;;;;;3.24;100.00;102359.78;5054962;28;19975;-49
2021/11/11 02:12:31;;;;;;;;;;;;;;;3.20;100.00;102361.56;5054775;28;19968;-47
2021/11/11 02:14:58;;;;;;;;;;;;;;;3.24;100.00;102358.94;5053630;28;19928;-47
2021/11/11 02:17:28;;;;;;;;;;;;;;;3.24;100.00;102359.78;5054874;28;19971;-49
2021/11/11 02:19:59;;;;;;;;;;;;;;;3.24;100.00;102353.72;5054998;28;19925;-47
2021/11/11 02:22:26;;;;;;;;;;;;;;;3.23;100.00;102352.84;5053532;28;19932;-50
2021/11/11 02:24:53;;;;;;;;;;;;;;;3.23;100.00;102352.84;5053311;28;19929;-46
2021/11/11 02:27:21;;;;;;;;;;;;;;;3.27;100.00;102349.34;5053021;28;20356;-47
2021/11/11 02:29:48;;;;;;;;;;;;;;;3.27;100.00;102346.75;5054747;28;20375;-47
2021/11/11 02:32:15;;;;;;;;;;;;;;;3.36;100.00;102341.44;5054414;28;19925;-47
2021/11/11 02:34:43;;;;;;;;;;;;;;;3.33;100.00;102348.44;5054425;28;19925;-48
2021/11/11 02:37:09;;;;;;;;;;;;;;;3.36;100.00;102345.81;5054516;28;20350;-48
2021/11/11 02:39:37;;;;;;;;;;;;;;;3.43;100.00;102349.19;5052995;28;19925;-48
2021/11/11 02:42:05;;;;;;;;;;;;;;;3.46;100.00;102338.75;5054216;28;19929;-47
2021/11/11 02:44:33;;;;;;;;;;;;;;;3.52;100.00;102342.16;5054424;28;19967;-48
2021/11/11 02:46:59;;;;;;;;;;;;;;;3.59;100.00;102334.28;5052426;28;19931;-46
2021/11/11 02:49:31;;;;;;;;;;;;;;;3.60;100.00;102335.97;5054279;28;19970;-46
2021/11/11 02:51:58;;;;;;;;;;;;;;;3.66;100.00;102341.13;5053763;28;19932;-47
2021/11/11 02:54:25;;;;;;;;;;;;;;;3.67;100.00;102345.44;5053419;28;19974;-46
2021/11/11 02:56:52;;;;;;;;;;;;;;;3.71;100.00;102344.53;5053785;28;20424;-45
2021/11/11 02:59:18;;;;;;;;;;;;;;;3.74;100.00;102341.88;5053948;28;19925;-46
2021/11/11 03:01:45;;;;;;;;;;;;;;;3.83;100.00;102348.69;5053921;28;19925;-51
2021/11/11 03:04:12;;;;;;;;;;;;;;;3.84;100.00;102346.06;5050027;28;20399;-49
2021/11/11 03:06:39;;;;;;;;;;;;;;;3.85;100.00;102347.81;5051356;28;19986;-49
2021/11/11 03:09:06;;;;;;;;;;;;;;;3.87;100.00;102343.47;5052911;28;20400;-50
2021/11/11 03:11:33;;;;;;;;;;;;;;;3.88;100.00;102342.56;5050839;28;19928;-44
2021/11/11 03:14:00;;;;;;;;;;;;;;;3.94;100.00;102343.34;5051766;28;19932;-48
2021/11/11 03:16:27;;;;;;;;;;;;;;;3.96;100.00;102341.63;5052626;28;19977;-47
2021/11/11 03:18:54;;;;;;;;;;;;;;;4.00;100.00;102343.28;5052520;28;20032;-47
2021/11/11 03:21:21;;;;;;;;;;;;;;;4.03;100.00;102338.03;5051068;28;19925;-47
2021/11/11 03:23:48;;;;;;;;;;;;;;;4.05;100.00;102346.69;5051519;28;20414;-47
2021/11/11 03:26:16;;;;;;;;;;;;;;;4.09;100.00;102350.97;5053398;28;19951;-49
2021/11/11 03:28:43;;;;;;;;;;;;;;;4.13;100.00;102343.97;5053786;28;19924;-49
2021/11/11 03:31:10;;;;;;;;;;;;;;;4.20;100.00;102336.06;5053305;28;19924;-48
2021/11/11 03:33:37;;;;;;;;;;;;;;;4.22;100.00;102334.28;5051031;28;19928;-48
2021/11/11 03:36:04;;;;;;;;;;;;;;;4.19;100.00;102342.13;5050683;28;19935;-49
2021/11/11 03:38:31;;;;;;;;;;;;;;;4.23;100.00;102345.56;5052482;28;19929;-46
2021/11/11 03:40:58;;;;;;;;;;;;;;;4.19;100.00;102349.94;5048903;28;19975;-46
2021/11/11 03:43:24;;;;;;;;;;;;;;;4.14;100.00;102346.53;5051598;28;20391;-48
2021/11/11 03:45:51;;;;;;;;;;;;;;;4.11;100.00;102353.56;5051139;28;20601;-47
2021/11/11 03:48:18;;;;;;;;;;;;;;;4.11;100.00;102354.41;5046781;28;20013;-48
2021/11/11 03:50:45;;;;;;;;;;;;;;;4.13;100.00;102350.06;5052806;28;20015;-47
2021/11/11 03:53:11;;;;;;;;;;;;;;;4.11;100.00;102346.59;5051805;28;20007;-50
2021/11/11 03:55:38;;;;;;;;;;;;;;;4.12;100.00;102343.13;5053223;28;20450;-46
2021/11/11 03:58:06;;;;;;;;;;;;;;;4.07;100.00;102342.31;5051607;28;19924;-50
2021/11/11 04:00:33;;;;;;;;;;;;;;;4.05;100.00;102344.94;5053241;28;20291;-52
2021/11/11 04:03:00;;;;;;;;;;;;;;;4.08;100.00;102338.84;5051865;28;19925;-47
2021/11/11 04:05:26;;;;;;;;;;;;;;;4.06;100.00;102340.59;5052882;28;20332;-45
2021/11/11 04:07:53;;;;;;;;;;;;;;;4.06;100.00;102341.47;5051384;28;20294;-48
2021/11/11 04:10:20;;;;;;;;;;;;;;;4.05;100.00;102342.34;5051501;28;19925;-45
2021/11/11 04:13:00;;;;;;;;;;;;;;;4.03;100.00;102338.03;5051628;28;19932;-46
2021/11/11 04:15:26;;;;;;;;;;;;;;;4.02;100.00;102345.00;5052621;28;19986;-47
2021/11/11 04:17:53;;;;;;;;;;;;;;;4.05;100.00;102342.34;5052180;28;19928;-48
2021/11/11 04:20:20;;;;;;;;;;;;;;;4.01;100.00;102351.06;5051144;28;19932;-45
2021/11/11 04:22:47;;;;;;;;;;;;;;;4.02;100.00;102350.19;5052511;28;19925;-46
2021/11/11 04:25:24;;;;;;;;;;;;;;;4.08;100.00;102354.47;5052521;28;19975;-49
2021/11/11 04:28:00;;;;;;;;;;;;;;;4.07;100.00;102347.53;5052193;28;19925;-49
2021/11/11 04:30:36;;;;;;;;;;;;;;;4.09;100.00;102350.09;5051344;28;19928;-50
2021/11/11 04:33:04;;;;;;;;;;;;;;;4.04;100.00;102345.81;5052781;28;19978;-51
2021/11/11 04:35:31;;;;;;;;;;;;;;;4.06;100.00;102341.47;5052912;28;19991;-48
2021/11/11 04:38:52;;;;;;;;;;;;;;;4.06;100.00;102345.78;5052402;28;19925;-50
2021/11/11 04:47:22;;;;;;;;;;;;;;;4.04;100.00;102353.63;5051484;28;19990;-47
2021/11/11 05:05:20;;;;;;;;;;;;;;;4.06;100.00;102344.06;5052187;28;20019;-46
2021/11/11 05:07:47;;;;;;;;;;;;;;;4.08;100.00;102346.66;5052069;28;19924;-50
2021/11/11 05:10:15;;;;;;;;;;;;;;;4.14;100.00;102356.97;5052387;28;20024;-50
2021/11/11 05:12:42;;;;;;;;;;;;;;;4.16;100.00;102355.22;5056339;28;20330;-45
2021/11/11 05:15:09;;;;;;;;;;;;;;;4.20;100.00;102343.88;5056102;28;19924;-48
2021/11/11 05:17:36;;;;;;;;;;;;;;;4.20;100.00;102343.88;5056005;28;19971;-46
2021/11/11 05:20:03;;;;;;;;;;;;;;;4.19;100.00;102341.28;5055911;28;19968;-49
2021/11/11 05:22:29;;;;;;;;;;;;;;;4.21;100.00;102353.41;5055724;28;19958;-46
2021/11/11 05:24:56;;;;;;;;;;;;;;;4.22;100.00;102352.50;5054691;28;19964;-49
2021/11/11 05:27:26;;;;;;;;;;;;;;;4.30;100.00;102348.94;5054427;28;20409;-46
2021/11/11 05:29:53;;;;;;;;;;;;;;;4.28;100.00;102355.91;5054655;28;20334;-45
2021/11/11 05:32:20;;;;;;;;;;;;;;;4.29;100.00;102358.50;5055529;28;19979;-46
2021/11/11 05:34:47;;;;;;;;;;;;;;;4.32;100.00;102360.19;5055502;28;20362;-46
2021/11/11 05:37:15;;;;;;;;;;;;;;;4.38;100.00;102365.31;5055469;28;19928;-45
2021/11/11 05:39:42;;;;;;;;;;;;;;;4.40;100.00;102359.22;5054090;28;20257;-46
2021/11/11 05:42:10;;;;;;;;;;;;;;;4.40;100.00;102367.03;5055443;28;19924;-46
2021/11/11 05:44:36;;;;;;;;;;;;;;;4.43;100.00;102363.53;5055264;28;19925;-45
2021/11/11 05:47:03;;;;;;;;;;;;;;;4.44;100.00;102361.75;5054685;28;19972;-47
2021/11/11 05:49:30;;;;;;;;;;;;;;;4.43;100.00;102360.91;5054680;28;19925;-48
2021/11/11 05:51:57;;;;;;;;;;;;;;;4.43;100.00;102371.34;5055539;28;19925;-45
2021/11/11 05:54:24;;;;;;;;;;;;;;;4.42;100.00;102368.72;5054054;28;20441;-45
2021/11/11 05:56:51;;;;;;;;;;;;;;;4.44;100.00;102372.19;5050982;28;20376;-47
2021/11/11 05:59:17;;;;;;;;;;;;;;;4.44;100.00;102373.03;5053192;28;20375;-49
2021/11/11 06:01:44;;;;;;;;;;;;;;;4.44;100.00;102373.03;5055003;28;19925;-49
2021/11/11 06:04:11;;;;;;;;;;;;;;;4.42;100.00;102380.03;5053555;28;20407;-50
2021/11/11 06:06:38;;;;;;;;;;;;;;;4.42;100.00;102380.03;5050939;28;19931;-47
2021/11/11 06:09:05;;;;;;;;;;;;;;;4.44;100.00;102386.06;5052865;28;20425;-45
2021/11/11 06:11:32;;;;;;;;;;;;;;;4.43;100.00;102391.28;5054496;28;19929;-47
2021/11/11 06:13:58;;;;;;;;;;;;;;;4.48;100.00;102381.66;5052096;28;20443;-46
2021/11/11 06:16:26;;;;;;;;;;;;;;;4.45;100.00;102387.78;5050248;28;19937;-47
2021/11/11 06:18:53;;;;;;;;;;;;;;;4.50;100.00;102393.81;5054329;28;20016;-47
2021/11/11 06:21:21;;;;;;;;;;;;;;;4.56;100.00;102385.88;5053293;28;20376;-45
2021/11/11 06:23:51;;;;;;;;;;;;;;;4.49;100.00;102396.44;5053643;28;20019;-46
2021/11/11 06:26:22;;;;;;;;;;;;;;;4.54;100.00;102395.47;5053726;28;20253;-50
2021/11/11 06:28:49;;;;;;;;;;;;;;;4.52;100.00;102402.44;5054474;28;19925;-47
2021/11/11 06:31:16;;;;;;;;;;;;;;;4.52;100.00;102397.22;5053163;28;19983;-48
2021/11/11 06:33:43;;;;;;;;;;;;;;;4.53;100.00;102398.97;5054324;28;19935;-47
2021/11/11 06:36:10;;;;;;;;;;;;;;;4.57;100.00;102405.84;5054389;28;19924;-47
2021/11/11 06:38:36;;;;;;;;;;;;;;;4.59;100.00;102415.38;5054331;28;19971;-48
2021/11/11 06:41:03;;;;;;;;;;;;;;;4.62;100.00;102418.81;5053065;28;20011;-48
2021/11/11 06:43:30;;;;;;;;;;;;;;;4.65;100.00;102415.28;5053373;28;19952;-48
2021/11/11 06:45:57;;;;;;;;;;;;;;;4.62;100.00;102412.72;5053649;28;19960;-46
2021/11/11 06:48:24;;;;;;;;;;;;;;;4.62;100.00;102410.13;5048855;28;19952;-47
2021/11/11 06:50:53;;;;;;;;;;;;;;;4.65;100.00;102413.56;5051317;28;21259;-48
2021/11/11 06:53:20;;;;;;;;;;;;;;;4.72;100.00;102423.00;5054113;28;19928;-51
2021/11/11 06:55:47;;;;;;;;;;;;;;;4.71;100.00;102415.19;5052565;28;19931;-46
2021/11/11 06:58:17;;;;;;;;;;;;;;;4.78;100.00;102408.16;5054042;28;20363;-50
2021/11/11 07:00:44;;;;;;;;;;;;;;;4.78;100.00;102411.59;5052733;28;19924;-49
2021/11/11 07:03:11;;;;;;;;;;;;;;;4.77;100.00;102411.63;5052742;28;20366;-44
2021/11/11 07:05:41;;;;;;;;;;;;;;;4.78;100.00;102416.81;5053924;28;19932;-46
2021/11/11 07:08:13;;;;;;;;;;;;;;;4.74;100.00;102423.84;5053629;28;19925;-49
2021/11/11 07:10:43;;;;;;;;;;;;;;;4.78;100.00;102427.25;5053866;28;19925;-45
2021/11/11 07:13:11;;;;;;;;;;;;;;;4.78;100.00;102427.25;5053626;28;20343;-50
2021/11/11 07:15:38;;;;;;;;;;;;;;;4.84;100.00;102436.72;5052973;28;19964;-47
2021/11/11 07:18:05;;;;;;;;;;;;;;;4.83;100.00;102438.47;5053187;28;19936;-47
2021/11/11 07:20:32;;;;;;;;;;;;;;;4.88;100.00;102428.84;5051972;28;19924;-51
2021/11/11 07:23:00;;;;;;;;;;;;;;;4.89;100.00;102437.50;5050432;28;19964;-48
2021/11/11 07:25:27;;;;;;;;;;;;;;;4.90;100.00;102429.66;5052988;28;19990;-46
2021/11/11 07:27:55;;;;;;;;;;;;;;;4.98;100.00;102436.53;5053342;28;20019;-47
2021/11/11 07:30:21;;;;;;;;;;;;;;;4.88;100.00;102425.34;5053389;28;19990;-48
2021/11/11 07:32:48;;;;;;;;;;;;;;;4.90;100.00;102434.88;5052215;28;19925;-49
2021/11/11 07:35:16;;;;;;;;;;;;;;;4.86;100.00;102430.59;5051874;28;19925;-48
2021/11/11 07:37:44;;;;;;;;;;;;;;;4.86;100.00;102427.97;5051954;28;19978;-47
2021/11/11 07:40:11;;;;;;;;;;;;;;;5.01;100.00;102420.81;5051884;28;19929;-51
2021/11/11 07:42:39;;;;;;;;;;;;;;;5.00;100.00;102419.94;5053115;28;19929;-51
2021/11/11 07:45:06;;;;;;;;;;;;;;;5.01;100.00;102428.63;5052826;28;19975;-47
2021/11/11 07:47:34;;;;;;;;;;;;;;;5.02;100.00;102436.44;5052889;28;19970;-51
2021/11/11 07:50:02;;;;;;;;;;;;;;;5.00;100.00;102439.94;5052611;28;20335;-49
2021/11/11 07:52:29;;;;;;;;;;;;;;;4.98;100.00;102432.16;5052754;28;19975;-51
2021/11/11 07:54:57;;;;;;;;;;;;;;;5.04;100.00;102429.44;5052981;28;19925;-45
2021/11/11 07:57:27;;;;;;;;;;;;;;;5.05;100.00;102417.25;5052929;28;19960;-48
2021/11/11 07:59:53;;;;;;;;;;;;;;;5.08;100.00;102415.47;5053154;28;19931;-47
2021/11/11 08:02:21;;;;;;;;;;;;;;;5.16;100.00;102423.16;5048937;28;19929;-46
2021/11/11 08:04:48;;;;;;;;;;;;;;;5.17;100.00;102432.69;5049360;28;19928;-46
2021/11/11 08:07:17;;;;;;;;;;;;;;;5.08;100.00;102427.63;5052413;28;20342;-47
2021/11/11 08:09:45;;;;;;;;;;;;;;;5.13;100.00;102427.56;5053396;28;19924;-48
2021/11/11 08:12:11;;;;;;;;;;;;;;;5.19;100.00;102430.91;5052881;28;19971;-50
2021/11/11 08:14:39;;;;;;;;;;;;;;;5.28;100.00;102429.06;5051541;28;19960;-48
2021/11/11 08:17:08;;;;;;;;;;;;;;;5.30;100.00;102433.34;5049349;28;19931;-49
2021/11/11 08:19:35;;;;;;;;;;;;;;;5.33;100.00;102429.81;5049493;28;20593;-48
2021/11/11 08:22:02;;;;;;;;;;;;;;;5.33;100.00;102422.00;5052781;28;19928;-46
2021/11/11 08:24:29;;;;;;;;;;;;;;;5.38;100.00;102425.38;5052431;28;19929;-46
2021/11/11 08:26:56;;;;;;;;;;;;;;;5.37;100.00;102415.81;5052788;28;20284;-47
2021/11/11 08:29:23;;;;;;;;;;;;;;;5.44;100.00;102416.56;5052448;28;20343;-47
2021/11/11 08:31:49;;;;;;;;;;;;;;;5.43;100.00;102418.34;5051412;28;19974;-48
2021/11/11 08:34:17;;;;;;;;;;;;;;;5.46;100.00;102422.66;5051361;28;19968;-48
2021/11/11 08:36:43;;;;;;;;;;;;;;;5.47;100.00;102425.22;5052309;28;19968;-47
2021/11/11 08:39:10;;;;;;;;;;;;;;;5.49;100.00;102426.03;5051094;28;20320;-46
2021/11/11 08:41:37;;;;;;;;;;;;;;;5.53;100.00;102427.69;5052554;28;19925;-46
2021/11/11 08:44:05;;;;;;;;;;;;;;;5.53;100.00;102435.53;5052794;28;20011;-47
2021/11/11 08:46:32;;;;;;;;;;;;;;;5.48;100.00;102423.47;5054871;28;20371;-46
2021/11/11 08:49:00;;;;;;;;;;;;;;;5.51;100.00;102431.25;5055236;28;19924;-46
2021/11/11 08:51:28;;;;;;;;;;;;;;;5.52;100.00;102428.63;5056667;28;19929;-46
2021/11/11 08:53:56;;;;;;;;;;;;;;;5.56;100.00;102429.41;5056245;28;19931;-46
2021/11/11 08:56:23;;;;;;;;;;;;;;;5.63;100.00;102436.25;5056246;28;20563;-46
2021/11/11 08:58:50;;;;;;;;;;;;;;;5.64;100.00;102443.16;5055380;28;20334;-47
2021/11/11 09:01:16;;;;;;;;;;;;;;;5.70;100.00;102436.97;5055474;28;20338;-46
2021/11/11 09:03:43;;;;;;;;;;;;;;;5.71;100.00;102442.19;5055854;28;19925;-49
2021/11/11 09:06:12;;;;;;;;;;;;;;;5.70;100.00;102436.97;5054895;28;19931;-49
2021/11/11 09:08:38;;;;;;;;;;;;;;;5.75;100.00;102440.34;5054700;28;19971;-46
2021/11/11 09:11:05;;;;;;;;;;;;;;;5.74;100.00;102443.88;5051738;28;19933;-51
2021/11/11 09:13:32;;;;;;;;;;;;;;;5.85;100.00;102443.63;5055559;28;19952;-51
2021/11/11 09:16:01;;;;;;;;;;;;;;;5.85;100.00;102438.41;5050715;28;20411;-49
2021/11/11 09:18:28;;;;;;;;;;;;;;;5.92;100.00;102446.09;5049300;28;19943;-49
2021/11/11 09:21:01;;;;;;;;;;;;;;;6.01;100.00;102439.00;5035164;28;19929;-46
2021/11/11 09:23:28;;;;;;;;;;;;;;;6.08;100.00;102453.66;5035331;28;20443;-48
2021/11/11 09:25:55;;;;;;;;;;;;;;;6.11;100.00;102448.38;5047171;28;20415;-51
2021/11/11 09:28:22;;;;;;;;;;;;;;;6.15;100.00;102450.03;5061247;28;19994;-49
2021/11/11 09:30:49;;;;;;;;;;;;;;;6.19;100.00;102446.47;5035127;28;19983;-47
2021/11/11 09:33:16;;;;;;;;;;;;;;;6.24;100.00;102452.47;5037580;28;19932;-48
2021/11/11 09:35:43;;;;;;;;;;;;;;;6.23;100.00;102453.34;5042034;28;19925;-51
2021/11/11 09:38:10;;;;;;;;;;;;;;;6.28;100.00;102457.63;5049478;28;19964;-48
2021/11/11 09:40:36;;;;;;;;;;;;;;;6.34;100.00;102455.72;5044101;28;19925;-46
2021/11/11 09:43:03;;;;;;;;;;;;;;;6.39;100.00;102451.28;5033688;28;20341;-49
2021/11/11 09:45:32;;;;;;;;;;;;;;;6.48;100.00;102449.34;5045516;28;19971;-47
2021/11/11 09:47:59;;;;;;;;;;;;;;;6.50;99.89;102452.78;5049926;28;20280;-50
2021/11/11 09:50:26;;;;;;;;;;;;;;;6.50;100.00;102445.78;5037628;28;20015;-50
2021/11/11 09:52:53;;;;;;;;;;;;;;;6.53;100.00;102453.56;5042960;28;20439;-48
2021/11/11 10:00:52;;;;;;;;;;;;;;;6.72;99.80;102455.75;5045580;28;19925;-50
2021/11/11 10:03:20;;;;;;;;;;;;;;;6.81;99.93;102457.31;5035363;28;20339;-48
2021/11/11 10:05:47;;;;;;;;;;;;;;;6.86;99.94;102456.31;5048372;28;19933;-46
2021/11/11 10:08:34;;;;;;;;;;;;;;;6.96;100.00;102456.09;5049117;28;20288;-46
2021/11/11 10:11:02;;;;;;;;;;;;;;;7.05;99.65;102453.25;5040182;28;20410;-47
2021/11/11 10:13:29;;;;;;;;;;;;;;;7.09;98.56;102450.50;5043151;28;19924;-47
2021/11/11 10:15:57;;;;;;;;;;;;;;;7.17;98.68;102452.06;5046802;28;19959;-51
2021/11/11 10:18:36;;;;;;;;;;;;;;;7.09;97.87;102444.44;5044254;28;19925;-48
2021/11/11 10:21:03;;;;;;;;;;;;;;;7.10;99.17;102447.00;5041305;28;20078;-47
2021/11/11 10:23:30;;;;;;;;;;;;;;;7.19;99.66;102445.06;5057660;28;19967;-48
2021/11/11 10:26:16;;;;;;;;;;;;;;;7.28;98.76;102450.91;5037719;28;20020;-49
2021/11/11 10:28:43;;;;;;;;;;;;;;;7.31;98.54;102449.09;5036742;28;19926;-47
2021/11/11 10:31:16;;;;;;;;;;;;;;;7.31;98.58;102449.09;5040233;28;19929;-48
2021/11/11 10:34:03;;;;;;;;;;;;;;;7.38;98.92;102450.66;5043086;28;20016;-48
2021/11/11 10:36:43;;;;;;;;;;;;;;;7.53;98.60;102442.41;5041047;28;19999;-47
2021/11/11 10:39:17;;;;;;;;;;;;;;;7.70;98.61;102441.09;5041333;28;20277;-48
2021/11/11 10:41:44;;;;;;;;;;;;;;;7.80;97.81;102447.78;5048871;28;20388;-47
2021/11/11 10:44:15;;;;;;;;;;;;;;;7.86;96.92;102434.50;5049044;28;19932;-47
2021/11/11 10:46:43;;;;;;;;;;;;;;;7.97;96.84;102441.22;5041409;28;19929;-48
2021/11/11 10:49:20;;;;;;;;;;;;;;;8.01;96.89;102440.22;5048600;28;19937;-47
2021/11/11 10:51:47;;;;;;;;;;;;;;;8.05;97.20;102436.63;5039870;28;19976;-54
2021/11/11 10:54:13;;;;;;;;;;;;;;;8.11;97.50;102433.78;5048956;28;19987;-48
2021/11/11 10:56:42;;;;;;;;;;;;;;;8.18;96.47;102435.34;5043925;28;20043;-48
2021/11/11 10:59:18;;;;;;;;;;;;;;;8.28;95.84;102434.16;5041083;28;19929;-48
2021/11/11 11:01:45;;;;;;;;;;;;;;;8.34;95.36;102425.25;5043745;28;19925;-49
2021/11/11 11:04:27;;;;;;;;;;;;;;;8.41;94.57;102428.53;5047184;28;20398;-47
2021/11/11 11:07:14;;;;;;;;;;;;;;;8.44;93.25;102423.22;5043362;28;19979;-49
2021/11/11 11:09:41;;;;;;;;;;;;;;;8.53;93.84;102428.19;5038912;28;20124;-46
2021/11/11 11:12:28;;;;;;;;;;;;;;;8.60;93.92;102419.25;5034215;28;19931;-49
2021/11/11 11:14:55;;;;;;;;;;;;;;;8.65;93.17;102423.50;5038455;28;19994;-51
2021/11/11 11:17:21;;;;;;;;;;;;;;;8.72;93.09;102419.75;5047133;28;19929;-47
2021/11/11 11:19:49;;;;;;;;;;;;;;;8.76;93.81;102418.75;5049935;28;19959;-49
2021/11/11 11:22:24;;;;;;;;;;;;;;;8.87;93.56;102416.63;5043961;28;19971;-49
2021/11/11 11:25:02;;;;;;;;;;;;;;;8.96;92.78;102408.44;5048199;28;20366;-49
2021/11/11 11:27:32;;;;;;;;;;;;;;;9.11;93.73;102411.47;5035599;28;20372;-50
2021/11/11 11:30:05;;;;;;;;;;;;;;;9.11;90.47;102414.94;5040000;28;19926;-51
2021/11/11 11:32:32;;;;;;;;;;;;;;;9.12;90.74;102418.41;5039089;28;20307;-48
2021/11/11 11:35:03;;;;;;;;;;;;;;;9.10;89.82;102413.22;5039126;28;20063;-51
2021/11/11 11:37:31;;;;;;;;;;;;;;;9.20;89.39;102407.66;5036795;28;19925;-49
2021/11/11 11:39:59;;;;;;;;;;;;;;;9.27;89.86;102415.28;5049472;28;19996;-47
2021/11/11 11:42:41;;;;;;;;;;;;;;;9.33;89.66;102416.00;5042720;28;19939;-52
2021/11/11 11:45:09;;;;;;;;;;;;;;;9.37;90.02;102405.31;5045115;28;20334;-51
2021/11/11 11:50:14;;;;;;;;;;;;;;;9.47;89.95;102411.09;5041887;28;20388;-51
2021/11/11 11:52:44;;;;;;;;;;;;;;;9.47;89.38;102417.22;5043326;28;20320;-50
2021/11/11 12:03:37;;;;;;;;;;;;;;;9.20;91.20;102416.38;5025090;28;19948;-50
2021/11/11 12:12:27;;;;;;;;;;;;;;;9.12;93.30;102403.53;5035093;28;19925;-48
2021/11/11 12:15:18;;;;;;;;;;;;;;;9.30;93.08;102399.41;5051350;28;19968;-48
2021/11/11 12:28:30;;;;;;;;;;;;;;;9.32;92.67;102401.13;5052835;28;19928;-48
2021/11/11 12:40:00;;;;;;;;;;;;;;;9.76;89.35;102401.28;5051455;28;19925;-48
2021/11/11 12:42:39;;;;;;;;;;;;;;;9.80;89.50;102397.63;5052456;28;20369;-48
2021/11/11 12:45:05;;;;;;;;;;;;;;;9.74;87.90;102392.63;5049467;28;19929;-51
2021/11/11 12:47:45;;;;;;;;;;;;;;;9.70;88.45;102397.13;5049713;28;19932;-48
2021/11/11 12:50:28;;;;;;;;;;;;;;;9.77;88.06;102387.25;5052333;28;19979;-48
2021/11/11 12:53:13;;;;;;;;;;;;;;;9.80;88.23;102384.50;5052514;28;19925;-48
2021/11/11 12:55:43;;;;;;;;;;;;;;;9.78;88.31;102384.56;5052736;28;19929;-46
2021/11/11 12:58:12;;;;;;;;;;;;;;;9.76;87.97;102388.16;5050565;28;20391;-47
2021/11/11 13:00:40;;;;;;;;;;;;;;;9.76;88.70;102382.91;5052516;28;19925;-48
2021/11/11 13:03:07;;;;;;;;;;;;;;;9.82;88.58;102383.53;5052108;28;19930;-47
2021/11/11 13:05:43;;;;;;;;;;;;;;;9.92;88.41;102386.66;5051896;28;19925;-48
2021/11/11 13:08:11;;;;;;;;;;;;;;;9.97;88.43;102389.13;5051686;28;19929;-51
2021/11/11 13:10:58;;;;;;;;;;;;;;;10.05;88.65;102380.94;5051977;28;20457;-48
2021/11/11 13:13:26;;;;;;;;;;;;;;;10.12;87.73;102382.44;5051905;28;19959;-46
2021/11/11 13:16:13;;;;;;;;;;;;;;;10.08;88.54;102375.59;5052270;28;19948;-48
2021/11/11 13:18:45;;;;;;;;;;;;;;;10.12;89.40;102375.41;5051808;28;19925;-47
2021/11/11 13:24:18;;;;;;;;;;;;;;;9.91;90.27;102366.59;5051880;28;20403;-48
2021/11/11 16:26:34;;;;;;;;;;;;;;;8.83;98.40;102328.44;5052743;28;19929;-50
2021/11/11 16:29:02;;;;;;;;;;;;;;;8.88;98.27;102321.25;5052490;28;20347;-49
2021/11/11 16:31:49;;;;;;;;;;;;;;;8.76;99.08;102329.56;5052484;28;19925;-47
2021/11/11 16:34:16;;;;;;;;;;;;;;;8.57;100.00;102318.81;5051447;28;19929;-46
2021/11/11 16:36:43;;;;;;;;;;;;;;;8.67;99.68;102335.09;5053095;28;20378;-51
2021/11/11 16:39:11;;;;;;;;;;;;;;;8.65;99.80;102329.06;5048977;28;19928;-50
2021/11/11 16:41:39;;;;;;;;;;;;;;;8.56;100.00;102330.22;5049305;28;20703;-52
2021/11/11 16:44:07;;;;;;;;;;;;;;;8.65;99.26;102334.31;5051583;28;19928;-47
2021/11/11 16:46:34;;;;;;;;;;;;;;;8.67;99.55;102329.84;5052399;28;19936;-46
2021/11/11 16:49:01;;;;;;;;;;;;;;;8.63;98.91;102332.59;5052588;28;19925;-48
2021/11/11 16:51:28;;;;;;;;;;;;;;;8.71;98.88;102336.72;5052451;28;20521;-46
2021/11/11 16:53:55;;;;;;;;;;;;;;;8.62;99.04;102335.25;5052506;28;19928;-47